createdAt,value
2023-02-13T00:00:20.825Z,8.35
2023-02-13T00:02:48.499Z,8.34
2023-02-13T00:05:16.786Z,8.34
2023-02-13T00:07:44.502Z,8.33
2023-02-13T00:10:12.492Z,8.33
2023-02-13T00:12:40.228Z,8.32
2023-02-13T00:15:07.913Z,8.31
2023-02-13T00:17:35.904Z,8.32
2023-02-13T00:20:03.547Z,8.31
2023-02-13T00:22:31.178Z,8.29
2023-02-13T00:24:59.101Z,8.30
2023-02-13T00:27:26.766Z,8.28
2023-02-13T00:29:54.785Z,8.29
2023-02-13T00:32:22.450Z,8.30
2023-02-13T00:34:50.074Z,8.30
2023-02-13T00:37:18.374Z,8.31
2023-02-13T00:39:45.989Z,8.30
2023-02-13T00:42:13.696Z,8.32
2023-02-13T00:44:41.393Z,8.30
2023-02-13T00:47:08.972Z,8.30
2023-02-13T00:49:36.857Z,8.30
2023-02-13T00:52:04.908Z,8.29
2023-02-13T00:54:32.896Z,8.29
2023-02-13T00:57:00.492Z,8.29
2023-02-13T00:59:28.118Z,8.30
2023-02-13T01:01:55.808Z,8.29
2023-02-13T01:04:23.440Z,8.30
2023-02-13T01:06:51.282Z,8.30
2023-02-13T01:09:18.925Z,8.32
2023-02-13T01:11:46.570Z,8.32
2023-02-13T01:14:16.191Z,8.33
2023-02-13T01:16:43.808Z,8.33
2023-02-13T01:19:11.464Z,8.35
2023-02-13T01:21:39.109Z,8.36
2023-02-13T01:24:06.722Z,8.38
2023-02-13T01:26:34.474Z,8.37
2023-02-13T01:29:02.133Z,8.38
2023-02-13T01:31:30.261Z,8.39
2023-02-13T01:33:57.966Z,8.40
2023-02-13T01:36:26.077Z,8.41
2023-02-13T01:38:53.751Z,8.42
2023-02-13T01:41:21.357Z,8.42
2023-02-13T01:43:49.271Z,8.41
2023-02-13T01:46:16.919Z,8.40
2023-02-13T01:48:44.585Z,8.41
2023-02-13T01:51:12.443Z,8.41
2023-02-13T01:53:41.537Z,8.39
2023-02-13T01:56:09.212Z,8.39
2023-02-13T01:58:37.165Z,8.38
2023-02-13T02:01:04.963Z,8.38
2023-02-13T02:03:32.745Z,8.38
2023-02-13T02:06:00.407Z,8.37
2023-02-13T02:08:28.458Z,8.35
2023-02-13T02:10:56.281Z,8.35
2023-02-13T02:13:24.180Z,8.34
2023-02-13T02:15:51.878Z,8.34
2023-02-13T02:18:19.488Z,8.33
2023-02-13T02:20:48.406Z,8.32
2023-02-13T02:23:16.057Z,8.31
2023-02-13T02:25:43.698Z,8.31
2023-02-13T02:28:11.448Z,8.29
2023-02-13T02:30:39.177Z,8.29
2023-02-13T02:33:06.827Z,8.28
2023-02-13T02:35:34.509Z,8.28
2023-02-13T02:38:02.123Z,8.26
2023-02-13T02:40:29.711Z,8.25
2023-02-13T02:42:57.669Z,8.24
2023-02-13T02:45:25.643Z,8.23
2023-02-13T02:48:10.865Z,8.22
2023-02-13T02:50:38.445Z,8.21
2023-02-13T02:53:06.068Z,8.18
2023-02-13T02:55:34.038Z,8.17
2023-02-13T02:58:19.083Z,8.14
2023-02-13T03:01:04.129Z,8.11
2023-02-13T03:03:49.092Z,8.08
2023-02-13T03:06:17.151Z,8.06
2023-02-13T03:09:02.307Z,8.05
2023-02-13T03:11:47.355Z,8.02
2023-02-13T03:14:14.943Z,8.01
2023-02-13T03:17:00.188Z,7.98
2023-02-13T03:19:45.359Z,7.97
2023-02-13T03:22:23.780Z,7.96
2023-02-13T03:24:51.809Z,7.95
2023-02-13T03:27:39.778Z,7.94
2023-02-13T03:30:09.367Z,7.95
2023-02-13T03:32:37.178Z,7.93
2023-02-13T03:35:22.423Z,7.91
2023-02-13T03:37:56.190Z,7.90
2023-02-13T03:40:23.837Z,7.89
2023-02-13T03:42:51.587Z,7.88
2023-02-13T03:45:37.079Z,7.87
2023-02-13T03:48:09.892Z,7.86
2023-02-13T03:50:36.546Z,7.84
2023-02-13T03:53:04.420Z,7.84
2023-02-13T03:55:49.654Z,7.83
2023-02-13T03:58:34.942Z,7.83
2023-02-13T04:01:02.701Z,7.82
2023-02-13T04:03:30.395Z,7.82
2023-02-13T04:05:58.061Z,7.81
2023-02-13T04:08:25.647Z,7.82
2023-02-13T04:10:53.604Z,7.82
2023-02-13T04:13:21.357Z,7.82
2023-02-13T04:15:49.263Z,7.82
2023-02-13T04:18:16.907Z,7.82
2023-02-13T04:20:44.555Z,7.82
2023-02-13T04:23:12.137Z,7.81
2023-02-13T04:25:39.725Z,7.80
2023-02-13T04:28:08.945Z,7.80
2023-02-13T04:30:36.862Z,7.79
2023-02-13T04:33:04.518Z,7.78
2023-02-13T04:35:32.154Z,7.78
2023-02-13T04:37:59.752Z,7.77
2023-02-13T04:40:27.584Z,7.80
2023-02-13T04:42:55.221Z,7.79
2023-02-13T04:45:22.863Z,7.80
2023-02-13T04:47:50.832Z,7.80
2023-02-13T04:50:18.948Z,7.81
2023-02-13T04:52:46.865Z,7.82
2023-02-13T04:55:14.453Z,7.82
2023-02-13T04:57:42.091Z,7.83
2023-02-13T05:00:10.086Z,7.85
2023-02-13T05:02:39.347Z,7.84
2023-02-13T05:05:07.477Z,7.85
2023-02-13T05:07:35.093Z,7.84
2023-02-13T05:10:02.702Z,7.85
2023-02-13T05:12:30.984Z,7.86
2023-02-13T05:14:58.740Z,7.86
2023-02-13T05:17:28.285Z,7.86
2023-02-13T05:19:56.060Z,7.86
2023-02-13T05:22:41.217Z,7.85
2023-02-13T05:25:08.894Z,7.86
2023-02-13T05:27:36.737Z,7.85
2023-02-13T05:30:04.359Z,7.86
2023-02-13T05:32:32.039Z,7.85
2023-02-13T05:35:01.080Z,7.84
2023-02-13T05:37:30.327Z,7.84
2023-02-13T05:39:58.286Z,7.84
2023-02-13T05:42:25.881Z,7.82
2023-02-13T05:44:53.520Z,7.81
2023-02-13T05:47:21.181Z,7.81
2023-02-13T05:49:48.802Z,7.80
2023-02-13T05:52:16.617Z,7.78
2023-02-13T05:54:44.759Z,7.75
2023-02-13T05:57:12.676Z,7.70
2023-02-13T05:59:40.353Z,7.64
2023-02-13T06:02:08.230Z,7.55
2023-02-13T06:04:35.907Z,7.48
2023-02-13T06:07:03.502Z,7.41
2023-02-13T06:09:31.160Z,7.33
2023-02-13T06:11:58.795Z,7.26
2023-02-13T06:14:26.452Z,7.19
2023-02-13T06:16:55.899Z,7.09
2023-02-13T06:19:23.567Z,7.00
2023-02-13T06:21:51.254Z,6.87
2023-02-13T06:24:19.298Z,6.75
2023-02-13T06:26:46.945Z,6.61
2023-02-13T06:29:14.936Z,6.49
2023-02-13T06:31:42.769Z,6.34
2023-02-13T06:34:10.477Z,6.23
2023-02-13T06:36:39.168Z,6.13
2023-02-13T06:39:07.250Z,6.02
2023-02-13T06:41:34.915Z,5.90
2023-02-13T06:44:02.553Z,5.81
2023-02-13T06:46:30.238Z,5.72
2023-02-13T06:48:58.274Z,5.66
2023-02-13T06:51:25.878Z,5.57
2023-02-13T06:53:53.814Z,5.49
2023-02-13T06:56:21.629Z,5.41
2023-02-13T06:58:49.281Z,5.32
2023-02-13T07:01:18.676Z,5.27
2023-02-13T07:03:48.854Z,5.23
2023-02-13T07:06:16.873Z,5.18
2023-02-13T07:08:44.635Z,5.15
2023-02-13T07:11:12.334Z,5.13
2023-02-13T07:13:40.181Z,5.10
2023-02-13T07:16:07.979Z,5.09
2023-02-13T07:18:37.568Z,5.09
2023-02-13T07:21:05.967Z,5.08
2023-02-13T07:23:33.713Z,5.09
2023-02-13T07:26:01.385Z,5.10
2023-02-13T07:28:29.064Z,5.10
2023-02-13T07:30:57.673Z,5.11
2023-02-13T07:33:25.592Z,5.12
2023-02-13T07:35:53.481Z,5.15
2023-02-13T07:38:21.403Z,5.19
2023-02-13T07:40:49.107Z,5.22
2023-02-13T07:43:18.250Z,5.26
2023-02-13T07:45:47.205Z,5.32
2023-02-13T07:48:14.916Z,5.39
2023-02-13T07:50:42.947Z,5.46
2023-02-13T07:53:10.787Z,5.53
2023-02-13T07:55:39.595Z,5.60
2023-02-13T07:58:07.370Z,5.67
2023-02-13T08:00:35.153Z,5.77
2023-02-13T08:03:03.062Z,5.87
2023-02-13T08:05:30.761Z,5.96
2023-02-13T08:07:58.704Z,6.05
2023-02-13T08:10:44.020Z,6.15
2023-02-13T08:13:12.340Z,6.41
2023-02-13T08:15:40.176Z,6.78
2023-02-13T08:18:08.353Z,7.23
2023-02-13T08:20:36.194Z,7.65
2023-02-13T08:23:03.967Z,7.90
2023-02-13T08:25:32.209Z,8.02
2023-02-13T08:28:00.068Z,8.10
2023-02-13T08:30:27.882Z,8.21
2023-02-13T08:32:55.660Z,8.48
2023-02-13T08:35:27.013Z,8.78
2023-02-13T08:37:55.050Z,9.02
2023-02-13T08:40:24.483Z,9.22
2023-02-13T08:42:54.669Z,9.36
2023-02-13T08:45:23.502Z,9.45
2023-02-13T08:47:51.656Z,9.47
2023-02-13T08:50:19.978Z,9.50
2023-02-13T08:52:47.651Z,9.54
2023-02-13T08:55:15.534Z,9.60
2023-02-13T08:57:43.408Z,9.64
2023-02-13T09:00:11.172Z,9.70
2023-02-13T09:02:39.341Z,9.83
2023-02-13T09:05:07.205Z,10.02
2023-02-13T09:07:35.186Z,10.18
2023-02-13T09:10:03.323Z,10.30
2023-02-13T09:12:31.171Z,10.37
2023-02-13T09:14:59.133Z,10.42
2023-02-13T09:17:26.941Z,10.44
2023-02-13T09:19:55.057Z,10.44
2023-02-13T09:22:22.885Z,10.43
2023-02-13T09:24:50.685Z,10.37
2023-02-13T09:27:19.029Z,10.37
2023-02-13T09:29:46.976Z,10.43
2023-02-13T09:32:15.023Z,10.43
2023-02-13T09:34:43.010Z,10.41
2023-02-13T09:37:10.843Z,10.36
2023-02-13T09:39:39.033Z,10.33
2023-02-13T09:42:06.804Z,10.29
2023-02-13T09:44:39.136Z,10.23
2023-02-13T09:47:07.414Z,10.17
2023-02-13T09:49:35.283Z,10.14
2023-02-13T09:52:03.569Z,10.10
2023-02-13T09:54:32.519Z,10.10
2023-02-13T09:57:02.480Z,10.10
2023-02-13T09:59:30.377Z,10.13
2023-02-13T10:01:58.310Z,10.16
2023-02-13T10:04:26.462Z,10.23
2023-02-13T10:06:54.348Z,10.33
2023-02-13T10:09:22.349Z,10.41
2023-02-13T10:11:50.111Z,10.52
2023-02-13T10:14:18.155Z,10.64
2023-02-13T10:16:46.532Z,10.77
2023-02-13T10:19:14.513Z,11.00
2023-02-13T10:21:42.916Z,11.48
2023-02-13T10:24:10.872Z,12.32
2023-02-13T10:26:45.891Z,13.48
2023-02-13T10:29:31.677Z,14.81
2023-02-13T10:32:00.064Z,16.18
2023-02-13T10:34:28.019Z,17.43
2023-02-13T10:36:55.813Z,18.52
2023-02-13T10:39:24.044Z,19.31
2023-02-13T10:41:51.842Z,20.05
2023-02-13T10:44:19.928Z,20.72
2023-02-13T10:46:47.762Z,21.31
2023-02-13T10:49:15.858Z,21.87
2023-02-13T10:51:43.804Z,22.43
2023-02-13T10:54:12.196Z,22.77
2023-02-13T10:56:40.153Z,23.12
2023-02-13T10:59:08.212Z,23.43
2023-02-13T11:01:36.265Z,23.73
2023-02-13T11:04:04.440Z,24.00
2023-02-13T11:06:32.969Z,24.31
2023-02-13T11:09:01.165Z,24.59
2023-02-13T11:11:29.056Z,24.62
2023-02-13T11:13:56.834Z,24.40
2023-02-13T11:16:25.222Z,24.12
2023-02-13T11:18:53.476Z,23.64
2023-02-13T11:21:21.620Z,23.43
2023-02-13T11:23:49.382Z,23.44
2023-02-13T11:26:17.193Z,23.60
2023-02-13T11:28:45.070Z,23.83
2023-02-13T11:31:13.724Z,23.98
2023-02-13T11:33:41.969Z,23.98
2023-02-13T11:36:10.158Z,23.94
2023-02-13T11:38:38.544Z,23.99
2023-02-13T11:41:06.466Z,24.18
2023-02-13T11:43:36.035Z,24.33
2023-02-13T11:46:04.696Z,24.33
2023-02-13T11:48:32.556Z,24.22
2023-02-13T11:51:00.610Z,23.92
2023-02-13T11:53:28.647Z,23.51
2023-02-13T11:55:56.986Z,23.22
2023-02-13T11:58:25.213Z,22.98
2023-02-13T12:00:53.646Z,23.01
2023-02-13T12:03:21.715Z,23.16
2023-02-13T12:05:49.726Z,23.31
2023-02-13T12:08:18.342Z,23.34
2023-02-13T12:10:46.172Z,23.20
2023-02-13T12:13:14.305Z,23.20
2023-02-13T12:15:41.991Z,22.95
2023-02-13T12:18:09.772Z,22.69
2023-02-13T12:20:38.865Z,22.60
2023-02-13T12:23:08.391Z,22.70
2023-02-13T12:25:36.823Z,22.87
2023-02-13T12:28:04.801Z,22.95
2023-02-13T12:30:32.582Z,23.05
2023-02-13T12:33:00.494Z,23.08
2023-02-13T12:35:28.525Z,22.70
2023-02-13T12:37:56.531Z,22.10
2023-02-13T12:40:24.931Z,21.76
2023-02-13T12:42:52.808Z,21.56
2023-02-13T12:45:21.339Z,21.46
2023-02-13T12:47:49.343Z,21.46
2023-02-13T12:50:17.194Z,21.53
2023-02-13T12:52:44.942Z,21.43
2023-02-13T12:55:13.143Z,21.17
2023-02-13T12:57:41.582Z,20.95
2023-02-13T13:00:09.696Z,20.71
2023-02-13T13:02:37.585Z,20.45
2023-02-13T13:05:05.634Z,20.22
2023-02-13T13:07:33.692Z,20.17
2023-02-13T13:10:01.828Z,20.27
2023-02-13T13:12:29.905Z,20.39
2023-02-13T13:14:57.677Z,20.53
2023-02-13T13:17:25.502Z,20.52
2023-02-13T13:19:53.340Z,20.49
2023-02-13T13:22:21.489Z,20.58
2023-02-13T13:24:49.607Z,20.70
2023-02-13T13:27:17.572Z,20.69
2023-02-13T13:29:45.908Z,20.55
2023-02-13T13:32:13.873Z,20.41
2023-02-13T13:34:42.923Z,20.17
2023-02-13T13:37:12.015Z,19.83
2023-02-13T13:39:39.954Z,19.58
2023-02-13T13:42:10.126Z,19.47
2023-02-13T13:44:38.101Z,19.48
2023-02-13T13:47:07.619Z,19.43
2023-02-13T13:49:35.823Z,19.24
2023-02-13T13:52:04.000Z,19.02
2023-02-13T13:54:31.842Z,18.77
2023-02-13T13:57:02.377Z,18.47
2023-02-13T13:59:30.292Z,18.22
2023-02-13T14:01:58.183Z,18.08
2023-02-13T14:04:26.339Z,18.11
2023-02-13T14:06:55.492Z,18.15
2023-02-13T14:09:23.330Z,18.13
2023-02-13T14:11:51.739Z,18.05
2023-02-13T14:14:21.796Z,17.99
2023-02-13T14:16:49.674Z,17.89
2023-02-13T14:19:17.681Z,17.71
2023-02-13T14:21:45.603Z,17.52
2023-02-13T14:24:14.024Z,17.32
2023-02-13T14:26:42.209Z,17.28
2023-02-13T14:29:10.131Z,17.36
2023-02-13T14:31:39.646Z,17.54
2023-02-13T14:34:07.865Z,17.78
2023-02-13T14:36:36.432Z,17.97
2023-02-13T14:39:04.447Z,17.93
2023-02-13T14:41:32.622Z,17.78
2023-02-13T14:44:00.504Z,17.76
2023-02-13T14:46:28.442Z,17.75
2023-02-13T14:48:56.892Z,17.77
2023-02-13T14:51:28.960Z,17.80
2023-02-13T14:53:56.929Z,17.96
2023-02-13T14:56:24.931Z,18.14
2023-02-13T14:58:53.087Z,18.26
2023-02-13T15:01:21.586Z,18.32
2023-02-13T15:03:50.108Z,18.41
2023-02-13T15:06:18.048Z,18.43
2023-02-13T15:08:46.061Z,18.38
2023-02-13T15:11:36.300Z,18.37
2023-02-13T15:14:04.972Z,18.50
2023-02-13T15:16:32.838Z,18.66
2023-02-13T15:19:01.064Z,18.74
2023-02-13T15:21:33.487Z,18.81
2023-02-13T15:24:01.677Z,18.94
2023-02-13T15:26:29.887Z,18.95
2023-02-13T15:28:57.795Z,18.41
2023-02-13T15:31:25.737Z,17.54
2023-02-13T15:33:53.579Z,16.74
2023-02-13T15:36:22.036Z,16.08
2023-02-13T15:38:50.195Z,15.49
2023-02-13T15:41:18.589Z,15.02
2023-02-13T15:43:46.611Z,14.59
2023-02-13T15:46:14.648Z,14.20
2023-02-13T15:48:43.032Z,13.88
2023-02-13T15:51:11.265Z,13.58
2023-02-13T15:53:39.211Z,13.32
2023-02-13T15:56:07.110Z,13.10
2023-02-13T15:58:35.259Z,12.88
2023-02-13T16:01:03.818Z,12.66
2023-02-13T16:03:31.732Z,12.49
2023-02-13T16:05:59.595Z,12.32
2023-02-13T16:08:27.385Z,12.18
2023-02-13T16:10:55.654Z,12.02
2023-02-13T16:13:23.781Z,11.90
2023-02-13T16:15:52.886Z,11.77
2023-02-13T16:18:20.804Z,11.67
2023-02-13T16:20:48.760Z,11.55
2023-02-13T16:23:16.965Z,11.43
2023-02-13T16:25:45.590Z,11.32
2023-02-13T16:28:13.903Z,11.24
2023-02-13T16:30:41.809Z,11.13
2023-02-13T16:33:09.865Z,11.02
2023-02-13T16:35:38.286Z,10.92
2023-02-13T16:38:06.755Z,10.82
2023-02-13T16:40:35.055Z,10.71
2023-02-13T16:43:02.948Z,10.58
2023-02-13T16:45:30.984Z,10.44
2023-02-13T16:48:00.216Z,10.31
2023-02-13T16:50:28.624Z,10.18
2023-02-13T16:52:56.661Z,10.07
2023-02-13T16:55:24.523Z,9.95
2023-02-13T16:57:52.500Z,9.82
2023-02-13T17:00:20.818Z,9.73
2023-02-13T17:02:49.775Z,9.62
2023-02-13T17:05:17.940Z,9.50
2023-02-13T17:07:47.044Z,9.41
2023-02-13T17:10:15.568Z,9.34
2023-02-13T17:12:43.603Z,9.29
2023-02-13T17:15:12.985Z,9.25
2023-02-13T17:17:40.895Z,9.20
2023-02-13T17:20:09.022Z,9.14
2023-02-13T17:22:36.956Z,9.05
2023-02-13T17:25:05.133Z,8.96
2023-02-13T17:27:33.507Z,8.87
2023-02-13T17:30:01.811Z,8.78
2023-02-13T17:32:30.219Z,8.71
2023-02-13T17:34:58.309Z,8.63
2023-02-13T17:37:26.255Z,8.54
2023-02-13T17:39:54.553Z,8.46
2023-02-13T17:42:23.198Z,8.36
2023-02-13T17:44:50.998Z,8.29
2023-02-13T17:47:18.918Z,8.19
2023-02-13T17:49:48.150Z,8.12
2023-02-13T17:52:17.191Z,8.04
2023-02-13T17:54:45.876Z,7.96
2023-02-13T17:57:14.065Z,7.88
2023-02-13T17:59:42.004Z,7.82
2023-02-13T18:02:10.013Z,7.74
2023-02-13T18:04:38.551Z,7.68
2023-02-13T18:07:06.620Z,7.61
2023-02-13T18:09:34.515Z,7.58
2023-02-13T18:12:05.598Z,7.53
2023-02-13T18:14:34.249Z,7.50
2023-02-13T18:17:02.667Z,7.46
2023-02-13T18:19:30.878Z,7.41
2023-02-13T18:21:58.776Z,7.35
2023-02-13T18:24:27.134Z,7.30
2023-02-13T18:26:56.215Z,7.26
2023-02-13T18:29:24.488Z,7.22
2023-02-13T18:31:53.878Z,7.16
2023-02-13T18:34:21.778Z,7.11
2023-02-13T18:36:50.054Z,7.05
2023-02-13T18:39:18.123Z,7.00
2023-02-13T18:41:46.117Z,6.97
2023-02-13T18:44:20.250Z,6.96
2023-02-13T18:46:56.011Z,6.96
2023-02-13T18:49:23.847Z,6.96
2023-02-13T18:51:52.284Z,6.94
2023-02-13T18:54:20.313Z,6.92
2023-02-13T18:56:48.228Z,6.88
2023-02-13T18:59:16.152Z,6.83
2023-02-13T19:01:44.301Z,6.76
2023-02-13T19:04:12.712Z,6.69
2023-02-13T19:06:41.909Z,6.62
2023-02-13T19:09:10.184Z,6.55
2023-02-13T19:11:39.045Z,6.52
2023-02-13T19:14:07.006Z,6.49
2023-02-13T19:16:35.611Z,6.47
2023-02-13T19:19:04.391Z,6.41
2023-02-13T19:21:32.379Z,6.32
2023-02-13T19:24:00.494Z,6.28
2023-02-13T19:26:28.476Z,6.24
2023-02-13T19:28:56.618Z,6.22
2023-02-13T19:31:24.789Z,6.17
2023-02-13T19:33:52.879Z,6.15
2023-02-13T19:36:20.770Z,6.10
2023-02-13T19:38:48.784Z,6.03
2023-02-13T19:41:17.746Z,5.96
2023-02-13T19:43:51.045Z,5.94
2023-02-13T19:46:19.269Z,5.98
2023-02-13T19:48:47.451Z,5.98
2023-02-13T19:51:15.349Z,5.95
2023-02-13T19:53:43.725Z,5.92
2023-02-13T19:56:11.849Z,5.87
2023-02-13T19:58:39.771Z,5.81
2023-02-13T20:01:07.693Z,5.76
2023-02-13T20:03:35.560Z,5.73
2023-02-13T20:06:04.029Z,5.67
2023-02-13T20:08:31.995Z,5.58
2023-02-13T20:11:00.246Z,5.50
2023-02-13T20:13:28.555Z,5.43
2023-02-13T20:15:56.661Z,5.38
2023-02-13T20:18:24.929Z,5.35
2023-02-13T20:20:53.385Z,5.30
2023-02-13T20:23:21.364Z,5.27
2023-02-13T20:25:49.631Z,5.24
2023-02-13T20:28:17.811Z,5.21
2023-02-13T20:30:46.317Z,5.16
2023-02-13T20:33:14.324Z,5.11
2023-02-13T20:35:42.286Z,5.06
2023-02-13T20:38:10.113Z,5.01
2023-02-13T20:40:37.897Z,4.96
2023-02-13T20:43:05.816Z,4.91
2023-02-13T20:45:33.788Z,4.85
2023-02-13T20:48:02.203Z,4.84
2023-02-13T20:50:30.171Z,4.80
2023-02-13T20:52:58.624Z,4.76
2023-02-13T20:55:26.920Z,4.73
2023-02-13T20:57:54.987Z,4.69
2023-02-13T21:00:22.941Z,4.67
2023-02-13T21:02:50.912Z,4.64
2023-02-13T21:05:18.821Z,4.62
2023-02-13T21:07:47.276Z,4.62
2023-02-13T21:10:16.950Z,4.61
2023-02-13T21:12:44.957Z,4.61
2023-02-13T21:15:12.808Z,4.58
2023-02-13T21:17:40.629Z,4.56
2023-02-13T21:20:08.996Z,4.55
2023-02-13T21:22:36.963Z,4.53
2023-02-13T21:25:04.894Z,4.50
2023-02-13T21:27:32.904Z,4.47
2023-02-13T21:30:00.758Z,4.47
2023-02-13T21:32:29.319Z,4.48
2023-02-13T21:34:57.240Z,4.50
2023-02-13T21:37:25.100Z,4.54
2023-02-13T21:39:52.908Z,4.54
2023-02-13T21:42:20.766Z,4.55
2023-02-13T21:44:48.951Z,4.54
2023-02-13T21:47:17.179Z,4.48
2023-02-13T21:49:45.059Z,4.39
2023-02-13T21:52:13.314Z,4.33
2023-02-13T21:54:41.010Z,4.28
2023-02-13T21:57:09.058Z,4.25
2023-02-13T21:59:37.084Z,4.23
2023-02-13T22:02:04.959Z,4.22
2023-02-13T22:04:32.746Z,4.21
2023-02-13T22:07:00.430Z,4.23
2023-02-13T22:09:28.662Z,4.26
2023-02-13T22:11:56.500Z,4.30
2023-02-13T22:14:24.639Z,4.29
2023-02-13T22:16:52.556Z,4.26
2023-02-13T22:19:20.494Z,4.23
2023-02-13T22:21:48.559Z,4.21
2023-02-13T22:24:16.709Z,4.19
2023-02-13T22:26:45.456Z,4.18
2023-02-13T22:29:13.172Z,4.16
2023-02-13T22:31:40.951Z,4.15
2023-02-13T22:34:09.139Z,4.13
2023-02-13T22:36:39.390Z,4.14
2023-02-13T22:39:07.240Z,4.14
2023-02-13T22:41:35.089Z,4.16
2023-02-13T22:44:02.801Z,4.19
2023-02-13T22:46:30.990Z,4.22
2023-02-13T22:48:59.037Z,4.23
2023-02-13T22:51:26.778Z,4.23
2023-02-13T22:53:54.517Z,4.20
2023-02-13T22:56:22.349Z,4.19
2023-02-13T22:58:50.797Z,4.15
2023-02-13T23:01:18.561Z,4.07
2023-02-13T23:03:46.663Z,4.01
2023-02-13T23:06:14.314Z,3.98
2023-02-13T23:08:42.030Z,3.97
2023-02-13T23:11:27.157Z,3.91
2023-02-13T23:13:55.046Z,3.86
2023-02-13T23:16:22.868Z,3.80
2023-02-13T23:18:50.088Z,3.76
2023-02-13T23:21:17.767Z,3.78
2023-02-13T23:23:45.866Z,3.80
2023-02-13T23:26:13.846Z,3.79
2023-02-13T23:28:41.539Z,3.79
2023-02-13T23:31:09.541Z,3.81
2023-02-13T23:33:37.250Z,3.78
2023-02-13T23:36:05.417Z,3.75
2023-02-13T23:38:33.328Z,3.72
2023-02-13T23:41:01.549Z,3.71
2023-02-13T23:43:29.272Z,3.76
2023-02-13T23:45:57.015Z,3.87
2023-02-13T23:48:25.056Z,4.00
2023-02-13T23:50:53.708Z,4.11
2023-02-13T23:53:21.327Z,4.14
2023-02-13T23:55:48.976Z,4.17
2023-02-13T23:58:16.862Z,4.14
